createdAt,value
2023-04-10T00:00:26.313Z,51.70
2023-04-10T00:01:26.325Z,49.00
2023-04-10T00:02:26.387Z,51.50
2023-04-10T00:03:26.384Z,54.40
2023-04-10T00:04:26.360Z,51.00
2023-04-10T00:05:26.408Z,64.50
2023-04-10T00:06:26.418Z,68.60
2023-04-10T00:07:26.299Z,54.90
2023-04-10T00:08:26.275Z,54.70
2023-04-10T00:09:26.556Z,65.00
2023-04-10T00:10:26.281Z,65.20
2023-04-10T00:11:26.262Z,62.00
2023-04-10T00:12:26.257Z,54.30
2023-04-10T00:13:26.273Z,60.50
2023-04-10T00:14:26.226Z,59.70
2023-04-10T00:15:26.243Z,57.60
2023-04-10T00:16:26.285Z,56.40
2023-04-10T00:17:26.252Z,52.60
2023-04-10T00:18:26.213Z,49.90
2023-04-10T00:19:58.616Z,47.90
2023-04-10T00:20:26.270Z,46.50
2023-04-10T00:21:26.234Z,47.00
2023-04-10T00:22:58.147Z,45.90
2023-04-10T00:23:26.961Z,48.40
2023-04-10T00:24:26.968Z,49.30
2023-04-10T00:25:58.598Z,48.50
2023-04-10T00:26:26.161Z,50.50
2023-04-10T00:27:26.165Z,51.80
2023-04-10T00:28:26.306Z,46.50
2023-04-10T00:29:26.167Z,43.50
2023-04-10T00:30:26.160Z,49.60
2023-04-10T00:31:26.153Z,46.30
2023-04-10T00:32:26.209Z,48.10
2023-04-10T00:33:27.308Z,48.40
2023-04-10T00:34:26.417Z,52.00
2023-04-10T00:35:26.146Z,49.50
2023-04-10T00:36:26.197Z,50.00
2023-04-10T00:37:26.115Z,48.00
2023-04-10T00:38:26.141Z,50.50
2023-04-10T00:39:26.115Z,45.80
2023-04-10T00:40:26.098Z,46.10
2023-04-10T00:41:26.053Z,47.40
2023-04-10T00:42:26.117Z,45.50
2023-04-10T00:43:26.068Z,45.50
2023-04-10T00:44:26.064Z,41.30
2023-04-10T00:45:26.058Z,42.70
2023-04-10T00:46:26.095Z,39.30
2023-04-10T00:47:26.087Z,40.10
2023-04-10T00:48:26.037Z,41.90
2023-04-10T00:49:26.055Z,43.50
2023-04-10T00:50:26.113Z,42.30
2023-04-10T00:51:26.015Z,37.60
2023-04-10T00:52:26.030Z,40.60
2023-04-10T00:53:25.992Z,39.50
2023-04-10T00:54:26.002Z,36.50
2023-04-10T00:55:26.015Z,37.20
2023-04-10T00:56:26.042Z,33.60
2023-04-10T00:57:25.980Z,33.90
2023-04-10T00:58:26.037Z,29.30
2023-04-10T00:59:26.035Z,36.10
2023-04-10T01:00:25.970Z,30.20
2023-04-10T01:01:26.045Z,35.30
2023-04-10T01:02:26.090Z,28.70
2023-04-10T01:03:26.683Z,33.60
2023-04-10T01:04:25.996Z,31.60
2023-04-10T01:05:25.930Z,39.90
2023-04-10T01:06:25.920Z,36.20
2023-04-10T01:07:25.925Z,36.00
2023-04-10T01:08:25.906Z,35.30
2023-04-10T01:09:25.878Z,36.80
2023-04-10T01:10:25.917Z,48.30
2023-04-10T01:11:25.885Z,46.00
2023-04-10T01:12:25.900Z,36.40
2023-04-10T01:13:25.882Z,41.00
2023-04-10T01:14:25.853Z,44.90
2023-04-10T01:15:25.879Z,53.80
2023-04-10T01:16:25.870Z,51.30
2023-04-10T01:17:25.882Z,52.20
2023-04-10T01:18:25.860Z,52.10
2023-04-10T01:19:25.847Z,52.20
2023-04-10T01:20:25.831Z,49.40
2023-04-10T01:21:25.858Z,52.10
2023-04-10T01:22:25.812Z,53.60
2023-04-10T01:23:25.809Z,54.80
2023-04-10T01:24:25.805Z,63.40
2023-04-10T01:25:25.817Z,69.30
2023-04-10T01:26:25.789Z,50.50
2023-04-10T01:27:25.816Z,57.40
2023-04-10T01:28:25.780Z,58.50
2023-04-10T01:29:25.796Z,59.20
2023-04-10T01:30:25.774Z,57.00
2023-04-10T01:31:25.828Z,58.10
2023-04-10T01:32:25.822Z,62.60
2023-04-10T01:33:25.774Z,58.60
2023-04-10T01:34:25.841Z,57.50
2023-04-10T01:35:25.792Z,56.60
2023-04-10T01:36:25.764Z,59.50
2023-04-10T01:37:25.829Z,60.00
2023-04-10T01:38:25.750Z,55.90
2023-04-10T01:39:25.807Z,53.90
2023-04-10T01:40:25.734Z,49.90
2023-04-10T01:41:25.717Z,48.60
2023-04-10T01:42:25.683Z,56.10
2023-04-10T01:43:26.695Z,53.60
2023-04-10T01:44:25.782Z,57.10
2023-04-10T01:45:25.700Z,56.80
2023-04-10T01:46:25.713Z,52.70
2023-04-10T01:47:25.705Z,52.70
2023-04-10T01:48:25.678Z,52.40
2023-04-10T01:49:25.670Z,58.40
2023-04-10T01:50:25.674Z,57.30
2023-04-10T01:51:25.678Z,59.50
2023-04-10T01:52:25.669Z,63.20
2023-04-10T01:53:25.704Z,68.60
2023-04-10T01:54:25.687Z,66.80
2023-04-10T01:55:25.689Z,68.60
2023-04-10T01:56:25.644Z,77.00
2023-04-10T01:57:25.665Z,76.00
2023-04-10T01:58:25.674Z,65.20
2023-04-10T01:59:25.619Z,66.60
2023-04-10T02:00:25.813Z,69.10
2023-04-10T02:01:30.332Z,76.50
2023-04-10T02:02:27.751Z,69.30
2023-04-10T02:03:25.724Z,56.60
2023-04-10T02:04:25.651Z,62.60
2023-04-10T02:05:25.608Z,62.70
2023-04-10T02:06:25.593Z,64.30
2023-04-10T02:07:25.568Z,61.60
2023-04-10T02:08:25.553Z,63.20
2023-04-10T02:09:25.578Z,70.00
2023-04-10T02:10:25.533Z,62.70
2023-04-10T02:11:25.545Z,61.50
2023-04-10T02:12:25.581Z,57.20
2023-04-10T02:13:25.559Z,61.10
2023-04-10T02:14:25.524Z,64.50
2023-04-10T02:15:25.514Z,71.90
2023-04-10T02:16:25.540Z,72.40
2023-04-10T02:17:25.576Z,78.70
2023-04-10T02:18:25.499Z,72.20
2023-04-10T02:19:25.521Z,72.40
2023-04-10T02:20:25.481Z,95.10
2023-04-10T02:21:25.475Z,83.30
2023-04-10T02:22:25.481Z,74.40
2023-04-10T02:23:25.514Z,74.30
2023-04-10T02:24:25.467Z,73.80
2023-04-10T02:25:25.460Z,86.90
2023-04-10T02:26:25.466Z,78.80
2023-04-10T02:27:25.529Z,71.80
2023-04-10T02:28:25.475Z,68.60
2023-04-10T02:29:25.505Z,73.00
2023-04-10T02:30:25.421Z,73.00
2023-04-10T02:31:25.478Z,76.10
2023-04-10T02:32:25.504Z,72.80
2023-04-10T02:33:26.445Z,86.40
2023-04-10T02:34:25.420Z,81.10
2023-04-10T02:35:25.397Z,75.90
2023-04-10T02:36:25.388Z,96.40
2023-04-10T02:37:25.416Z,83.00
2023-04-10T02:38:25.387Z,82.10
2023-04-10T02:39:25.375Z,88.10
2023-04-10T02:40:26.195Z,96.00
2023-04-10T02:41:25.391Z,92.80
2023-04-10T02:42:25.353Z,90.80
2023-04-10T02:43:25.468Z,87.70
2023-04-10T02:44:25.393Z,77.60
2023-04-10T02:45:25.335Z,82.10
2023-04-10T02:46:25.443Z,86.40
2023-04-10T02:47:25.412Z,119.30
2023-04-10T02:48:25.388Z,121.50
2023-04-10T02:49:25.423Z,116.20
2023-04-10T02:50:25.302Z,131.40
2023-04-10T02:51:25.375Z,124.30
2023-04-10T02:52:25.352Z,127.10
2023-04-10T02:53:25.288Z,118.70
2023-04-10T02:54:25.290Z,116.80
2023-04-10T02:55:25.281Z,108.50
2023-04-10T02:56:25.286Z,110.60
2023-04-10T02:57:25.275Z,102.50
2023-04-10T02:58:25.264Z,107.10
2023-04-10T02:59:25.255Z,96.20
2023-04-10T03:00:25.241Z,97.20
2023-04-10T03:01:25.323Z,95.40
2023-04-10T03:02:25.410Z,92.30
2023-04-10T03:03:25.448Z,102.70
2023-04-10T03:04:25.426Z,101.40
2023-04-10T03:05:25.222Z,99.00
2023-04-10T03:06:25.243Z,99.10
2023-04-10T03:07:25.215Z,90.30
2023-04-10T03:08:25.211Z,95.00
2023-04-10T03:09:25.190Z,93.60
2023-04-10T03:10:25.233Z,93.40
2023-04-10T03:11:25.191Z,100.90
2023-04-10T03:12:25.349Z,100.00
2023-04-10T03:13:25.183Z,105.10
2023-04-10T03:14:25.163Z,92.50
2023-04-10T03:15:25.142Z,96.50
2023-04-10T03:16:25.196Z,94.00
2023-04-10T03:17:25.135Z,99.70
2023-04-10T03:18:25.149Z,94.30
2023-04-10T03:19:25.147Z,98.70
2023-04-10T03:20:25.130Z,99.90
2023-04-10T03:21:25.125Z,99.50
2023-04-10T03:22:25.125Z,83.80
2023-04-10T03:23:25.118Z,87.00
2023-04-10T03:24:25.111Z,86.70
2023-04-10T03:25:25.154Z,95.40
2023-04-10T03:26:25.118Z,96.90
2023-04-10T03:27:25.095Z,93.50
2023-04-10T03:28:25.125Z,92.00
2023-04-10T03:29:25.086Z,92.40
2023-04-10T03:30:25.103Z,95.20
2023-04-10T03:31:25.096Z,92.20
2023-04-10T03:32:25.073Z,92.30
2023-04-10T03:33:25.101Z,85.70
2023-04-10T03:34:25.038Z,107.40
2023-04-10T03:35:26.006Z,131.20
2023-04-10T03:36:25.100Z,130.00
2023-04-10T03:37:25.027Z,129.70
2023-04-10T03:38:25.030Z,132.30
2023-04-10T03:39:25.019Z,155.40
2023-04-10T03:40:25.025Z,167.60
2023-04-10T03:41:25.689Z,185.10
2023-04-10T03:42:25.995Z,155.60
2023-04-10T03:43:25.006Z,154.60
2023-04-10T03:44:24.969Z,135.10
2023-04-10T03:45:25.031Z,140.90
2023-04-10T03:46:25.019Z,130.50
2023-04-10T03:47:24.976Z,140.60
2023-04-10T03:48:25.010Z,139.40
2023-04-10T03:49:24.980Z,132.20
2023-04-10T03:50:24.970Z,123.50
2023-04-10T03:51:25.003Z,127.00
2023-04-10T03:52:24.941Z,126.40
2023-04-10T03:53:24.943Z,110.50
2023-04-10T03:54:24.920Z,143.30
2023-04-10T03:55:24.904Z,130.20
2023-04-10T03:56:24.916Z,128.10
2023-04-10T03:57:24.925Z,142.60
2023-04-10T03:58:24.906Z,146.30
2023-04-10T03:59:37.299Z,152.10
2023-04-10T04:00:26.903Z,145.90
2023-04-10T04:01:24.923Z,142.50
2023-04-10T04:02:25.024Z,132.40
2023-04-10T04:03:25.054Z,123.50
2023-04-10T04:04:25.022Z,127.60
2023-04-10T04:05:24.850Z,129.20
2023-04-10T04:06:24.864Z,141.00
2023-04-10T04:07:25.478Z,131.80
2023-04-10T04:08:24.836Z,131.00
2023-04-10T04:09:24.851Z,132.20
2023-04-10T04:10:24.820Z,144.60
2023-04-10T04:11:24.824Z,131.30
2023-04-10T04:12:24.817Z,130.20
2023-04-10T04:13:24.826Z,141.10
2023-04-10T04:14:24.798Z,140.30
2023-04-10T04:15:25.484Z,123.00
2023-04-10T04:16:24.819Z,134.00
2023-04-10T04:17:24.825Z,123.20
2023-04-10T04:18:25.415Z,133.60
2023-04-10T04:19:24.802Z,153.40
2023-04-10T04:20:24.844Z,134.70
2023-04-10T04:21:24.791Z,125.70
2023-04-10T04:22:24.762Z,134.90
2023-04-10T04:23:24.751Z,143.40
2023-04-10T04:24:24.730Z,142.60
2023-04-10T04:25:24.751Z,136.80
2023-04-10T04:26:24.715Z,136.90
2023-04-10T04:27:24.742Z,132.20
2023-04-10T04:28:24.704Z,125.40
2023-04-10T04:29:24.729Z,129.20
2023-04-10T04:30:24.697Z,133.70
2023-04-10T04:31:24.744Z,133.30
2023-04-10T04:32:24.750Z,129.50
2023-04-10T04:33:24.708Z,130.50
2023-04-10T04:34:24.702Z,118.30
2023-04-10T04:35:24.695Z,143.50
2023-04-10T04:36:24.653Z,133.00
2023-04-10T04:37:24.658Z,139.90
2023-04-10T04:38:24.668Z,126.50
2023-04-10T04:39:24.679Z,129.00
2023-04-10T04:40:24.671Z,141.80
2023-04-10T04:41:24.614Z,128.40
2023-04-10T04:42:24.625Z,117.70
2023-04-10T04:43:24.623Z,125.90
2023-04-10T04:44:24.618Z,126.90
2023-04-10T04:45:24.624Z,125.50
2023-04-10T04:46:24.737Z,133.90
2023-04-10T04:47:24.642Z,132.80
2023-04-10T04:48:24.576Z,140.90
2023-04-10T04:49:24.623Z,137.50
2023-04-10T04:50:24.575Z,135.70
2023-04-10T04:51:24.568Z,129.20
2023-04-10T04:52:25.479Z,128.50
2023-04-10T04:53:24.562Z,130.50
2023-04-10T04:54:24.567Z,139.30
2023-04-10T04:55:24.585Z,129.70
2023-04-10T04:56:24.556Z,128.10
2023-04-10T04:57:24.589Z,132.20
2023-04-10T04:58:24.528Z,128.00
2023-04-10T04:59:24.541Z,136.40
2023-04-10T05:00:24.526Z,128.30
2023-04-10T05:01:25.518Z,127.30
2023-04-10T05:02:24.637Z,131.20
2023-04-10T05:03:24.699Z,139.60
2023-04-10T05:04:24.630Z,136.60
2023-04-10T05:05:24.508Z,124.20
2023-04-10T05:06:24.503Z,114.10
2023-04-10T05:07:24.565Z,108.80
2023-04-10T05:08:24.473Z,117.80
2023-04-10T05:09:25.412Z,113.00
2023-04-10T05:10:24.496Z,109.30
2023-04-10T05:11:24.481Z,111.70
2023-04-10T05:12:24.445Z,117.60
2023-04-10T05:13:24.484Z,112.70
2023-04-10T05:14:24.439Z,109.70
2023-04-10T05:15:24.456Z,123.00
2023-04-10T05:16:24.560Z,126.70
2023-04-10T05:17:24.420Z,117.00
2023-04-10T05:18:24.436Z,122.70
2023-04-10T05:19:24.405Z,126.60
2023-04-10T05:20:24.415Z,126.30
2023-04-10T05:21:24.398Z,114.90
2023-04-10T05:22:24.375Z,110.50
2023-04-10T05:23:24.397Z,103.10
2023-04-10T05:24:24.358Z,100.70
2023-04-10T05:25:24.360Z,82.80
2023-04-10T05:26:24.355Z,77.80
2023-04-10T05:27:24.359Z,73.20
2023-04-10T05:28:24.348Z,71.30
2023-04-10T05:29:24.326Z,70.10
2023-04-10T05:30:24.339Z,69.50
2023-04-10T05:31:24.356Z,63.40
2023-04-10T05:32:24.380Z,57.20
2023-04-10T05:33:24.334Z,56.30
2023-04-10T05:34:24.305Z,59.80
2023-04-10T05:35:24.419Z,59.20
2023-04-10T05:36:24.336Z,60.80
2023-04-10T05:37:24.309Z,61.90
2023-04-10T05:38:24.303Z,57.90
2023-04-10T05:39:24.330Z,58.30
2023-04-10T05:40:24.309Z,62.10
2023-04-10T05:41:24.257Z,72.90
2023-04-10T05:42:24.268Z,64.80
2023-04-10T05:43:24.263Z,58.80
2023-04-10T05:44:24.262Z,56.60
2023-04-10T05:45:24.249Z,55.20
2023-04-10T05:46:24.340Z,61.20
2023-04-10T05:47:24.289Z,66.70
2023-04-10T05:48:24.297Z,72.60
2023-04-10T05:49:24.278Z,61.70
2023-04-10T05:50:24.266Z,57.80
2023-04-10T05:51:24.192Z,56.10
2023-04-10T05:52:24.205Z,55.20
2023-04-10T05:53:24.194Z,52.90
2023-04-10T05:54:24.198Z,51.10
2023-04-10T05:55:24.192Z,50.40
2023-04-10T05:56:25.258Z,47.30
2023-04-10T05:57:24.166Z,45.70
2023-04-10T05:58:24.157Z,47.10
2023-04-10T05:59:24.146Z,50.50
2023-04-10T06:00:24.998Z,52.50
2023-04-10T06:01:24.156Z,56.50
2023-04-10T06:02:24.244Z,57.00
2023-04-10T06:03:24.306Z,56.90
2023-04-10T06:04:24.281Z,57.90
2023-04-10T06:05:24.179Z,54.00
2023-04-10T06:06:24.119Z,59.40
2023-04-10T06:07:24.152Z,51.60
2023-04-10T06:08:24.100Z,47.40
2023-04-10T06:09:24.100Z,46.90
2023-04-10T06:10:24.109Z,48.50
2023-04-10T06:11:24.110Z,50.30
2023-04-10T06:12:24.065Z,46.60
2023-04-10T06:13:24.107Z,47.70
2023-04-10T06:14:24.070Z,48.90
2023-04-10T06:15:24.069Z,48.40
2023-04-10T06:16:24.144Z,50.50
2023-04-10T06:17:24.086Z,45.30
2023-04-10T06:18:24.072Z,45.40
2023-04-10T06:19:24.083Z,46.60
2023-04-10T06:20:24.023Z,47.90
2023-04-10T06:21:24.032Z,49.30
2023-04-10T06:22:24.034Z,51.70
2023-04-10T06:23:24.020Z,69.20
2023-04-10T06:24:24.045Z,78.30
2023-04-10T06:25:24.002Z,64.50
2023-04-10T06:26:24.031Z,68.80
2023-04-10T06:27:23.990Z,63.60
2023-04-10T06:28:23.996Z,60.20
2023-04-10T06:29:24.008Z,57.40
2023-04-10T06:30:24.230Z,52.40
2023-04-10T06:31:24.057Z,49.90
2023-04-10T06:32:23.978Z,49.50
2023-04-10T06:33:26.123Z,45.80
2023-04-10T06:34:23.972Z,47.30
2023-04-10T06:35:23.929Z,44.60
2023-04-10T06:36:23.948Z,45.20
2023-04-10T06:37:24.947Z,44.70
2023-04-10T06:38:23.923Z,41.10
2023-04-10T06:39:23.956Z,38.80
2023-04-10T06:40:23.909Z,38.60
2023-04-10T06:41:23.924Z,40.30
2023-04-10T06:42:23.892Z,39.30
2023-04-10T06:43:23.881Z,50.30
2023-04-10T06:44:23.873Z,49.90
2023-04-10T06:45:23.879Z,47.10
2023-04-10T06:46:23.907Z,45.70
2023-04-10T06:47:23.977Z,38.20
2023-04-10T06:48:23.862Z,31.40
2023-04-10T06:49:23.878Z,26.00
2023-04-10T06:50:23.866Z,21.80
2023-04-10T06:51:23.883Z,21.10
2023-04-10T06:52:23.902Z,21.10
2023-04-10T06:53:23.858Z,19.30
2023-04-10T06:54:23.864Z,19.80
2023-04-10T06:55:23.896Z,19.00
2023-04-10T06:56:23.863Z,19.50
2023-04-10T06:57:23.814Z,20.20
2023-04-10T06:58:23.844Z,19.70
2023-04-10T06:59:24.000Z,18.50
2023-04-10T07:00:23.816Z,18.90
2023-04-10T07:01:23.980Z,19.10
2023-04-10T07:02:23.865Z,18.50
2023-04-10T07:03:23.835Z,17.30
2023-04-10T07:04:23.791Z,18.30
2023-04-10T07:05:23.742Z,17.80
2023-04-10T07:06:23.758Z,17.40
2023-04-10T07:07:23.750Z,17.80
2023-04-10T07:08:23.745Z,18.00
2023-04-10T07:09:23.737Z,19.10
2023-04-10T07:10:23.788Z,18.50
2023-04-10T07:11:23.700Z,17.50
2023-04-10T07:12:23.724Z,15.70
2023-04-10T07:13:23.795Z,16.60
2023-04-10T07:14:23.994Z,17.40
2023-04-10T07:15:23.717Z,16.40
2023-04-10T07:16:23.728Z,15.90
2023-04-10T07:17:23.702Z,16.20
2023-04-10T07:18:23.677Z,15.50
2023-04-10T07:19:23.716Z,15.50
2023-04-10T07:20:23.661Z,15.70
2023-04-10T07:21:23.649Z,14.90
2023-04-10T07:22:23.662Z,16.00
2023-04-10T07:23:23.688Z,15.00
2023-04-10T07:24:23.712Z,15.40
2023-04-10T07:25:24.501Z,16.20
2023-04-10T07:26:24.509Z,17.00
2023-04-10T07:27:23.649Z,16.40
2023-04-10T07:28:23.656Z,16.20
2023-04-10T07:29:23.613Z,15.30
2023-04-10T07:30:23.638Z,15.20
2023-04-10T07:31:23.680Z,16.00
2023-04-10T07:32:23.979Z,15.60
2023-04-10T07:33:23.747Z,15.30
2023-04-10T07:34:23.588Z,15.10
2023-04-10T07:35:23.611Z,14.80
2023-04-10T07:36:23.618Z,15.60
2023-04-10T07:37:23.595Z,15.00
2023-04-10T07:38:23.600Z,14.80
2023-04-10T07:39:23.585Z,15.30
2023-04-10T07:40:23.573Z,16.00
2023-04-10T07:41:23.594Z,15.00
2023-04-10T07:42:46.598Z,15.00
2023-04-10T07:43:23.610Z,16.00
2023-04-10T07:44:23.597Z,15.20
2023-04-10T07:45:23.526Z,14.80
2023-04-10T07:46:23.571Z,14.90
2023-04-10T07:47:23.559Z,14.50
2023-04-10T07:48:23.504Z,14.20
2023-04-10T07:49:23.492Z,15.30
2023-04-10T07:50:23.488Z,14.70
2023-04-10T07:51:23.475Z,14.00
2023-04-10T07:52:23.471Z,15.40
2023-04-10T07:53:23.549Z,14.70
2023-04-10T07:54:23.477Z,13.30
2023-04-10T07:55:23.444Z,13.30
2023-04-10T07:56:23.446Z,12.90
2023-04-10T07:57:23.528Z,13.50
2023-04-10T07:58:23.494Z,13.80
2023-04-10T07:59:24.092Z,14.60
2023-04-10T08:00:23.484Z,13.40
2023-04-10T08:01:23.404Z,14.20
2023-04-10T08:02:23.918Z,14.80
2023-04-10T08:03:24.141Z,15.80
2023-04-10T08:04:23.676Z,15.60
2023-04-10T08:05:23.453Z,14.30
2023-04-10T08:06:23.365Z,13.80
2023-04-10T08:07:24.431Z,14.90
2023-04-10T08:08:23.392Z,14.50
2023-04-10T08:09:23.374Z,13.90
2023-04-10T08:10:23.489Z,13.60
2023-04-10T08:11:56.962Z,13.20
2023-04-10T08:12:56.805Z,14.00
2023-04-10T08:13:24.036Z,15.20
2023-04-10T08:14:56.767Z,13.00
2023-04-10T08:15:56.808Z,13.20
2023-04-10T08:19:48.063Z,11.00
2023-04-10T08:21:22.766Z,11.10
2023-04-10T08:22:23.647Z,10.70
2023-04-10T08:24:59.005Z,9.90
2023-04-10T08:26:00.002Z,10.70
2023-04-10T08:26:59.947Z,11.20
2023-04-10T08:28:00.046Z,10.80
2023-04-10T08:28:59.951Z,10.70
2023-04-10T08:29:59.984Z,13.80
2023-04-10T08:30:59.955Z,10.20
2023-04-10T08:31:59.961Z,11.60
2023-04-10T08:33:00.014Z,10.50
2023-04-10T08:34:00.409Z,9.90
2023-04-10T08:34:59.897Z,10.00
2023-04-10T08:35:59.904Z,9.60
2023-04-10T08:36:59.883Z,10.60
2023-04-10T08:38:12.740Z,10.10
2023-04-10T08:39:01.895Z,9.40
2023-04-10T08:39:59.847Z,9.80
2023-04-10T08:41:00.002Z,10.50
2023-04-10T08:41:59.817Z,10.30
2023-04-10T08:42:59.862Z,10.70
2023-04-10T08:43:59.819Z,10.60
2023-04-10T08:44:59.833Z,10.50
2023-04-10T08:45:59.848Z,11.10
2023-04-10T08:46:59.819Z,10.50
2023-04-10T08:47:59.853Z,10.80
2023-04-10T08:48:59.808Z,10.60
2023-04-10T08:50:00.814Z,10.00
2023-04-10T08:50:59.797Z,9.80
2023-04-10T08:52:00.022Z,10.00
2023-04-10T08:52:59.746Z,10.70
2023-04-10T08:53:59.787Z,10.70
2023-04-10T08:54:59.768Z,10.30
2023-04-10T08:55:59.781Z,10.20
2023-04-10T08:56:59.772Z,10.30
2023-04-10T08:58:01.496Z,11.20
2023-04-10T08:59:00.767Z,10.20
2023-04-10T09:00:02.145Z,10.50
2023-04-10T09:01:00.703Z,10.80
2023-04-10T09:01:59.848Z,10.30
2023-04-10T09:02:59.805Z,9.90
2023-04-10T09:04:00.214Z,9.60
2023-04-10T09:04:59.700Z,9.70
2023-04-10T09:05:59.687Z,9.80
2023-04-10T09:06:59.696Z,10.30
2023-04-10T09:07:59.666Z,10.00
2023-04-10T09:09:59.638Z,10.30
2023-04-10T09:10:59.652Z,10.40
2023-04-10T09:11:59.663Z,10.10
2023-04-10T09:12:59.673Z,10.10
2023-04-10T09:13:59.654Z,10.10
2023-04-10T09:14:59.620Z,9.30
2023-04-10T09:15:59.810Z,9.80
2023-04-10T09:16:59.626Z,10.00
2023-04-10T09:17:59.660Z,10.10
2023-04-10T09:18:59.575Z,10.60
2023-04-10T09:20:00.607Z,10.20
2023-04-10T09:20:59.639Z,10.50
2023-04-10T09:21:59.603Z,11.00
2023-04-10T09:22:59.569Z,9.90
2023-04-10T09:23:59.604Z,10.80
2023-04-10T09:24:59.559Z,10.60
2023-04-10T09:25:59.551Z,11.20
2023-04-10T09:26:59.566Z,12.70
2023-04-10T09:27:59.525Z,11.00
2023-04-10T09:28:59.547Z,12.80
2023-04-10T09:29:59.544Z,13.30
2023-04-10T09:30:59.536Z,12.40
2023-04-10T09:31:59.528Z,11.80
2023-04-10T09:33:01.317Z,13.60
2023-04-10T09:34:00.572Z,10.10
2023-04-10T09:34:59.515Z,10.00
2023-04-10T09:35:59.514Z,9.90
2023-04-10T09:36:59.531Z,9.90
2023-04-10T09:37:59.535Z,14.20
2023-04-10T09:38:59.487Z,10.90
2023-04-10T09:39:59.516Z,10.80
2023-04-10T09:40:59.448Z,11.30
2023-04-10T09:41:59.464Z,12.30
2023-04-10T09:42:59.476Z,12.10
2023-04-10T09:43:59.472Z,8.90
2023-04-10T09:44:59.521Z,9.50
2023-04-10T09:45:59.442Z,9.00
2023-04-10T09:46:59.469Z,12.60
2023-04-10T09:47:59.465Z,13.20
2023-04-10T09:48:59.423Z,14.50
2023-04-10T09:49:59.402Z,11.60
2023-04-10T09:50:59.405Z,10.80
2023-04-10T09:51:59.434Z,9.90
2023-04-10T09:52:59.460Z,10.00
2023-04-10T09:53:59.481Z,9.00
2023-04-10T09:54:59.396Z,9.10
2023-04-10T09:55:59.399Z,9.00
2023-04-10T09:56:59.414Z,9.60
2023-04-10T09:57:59.519Z,9.10
2023-04-10T09:58:59.546Z,9.60
2023-04-10T09:59:59.491Z,9.40
2023-04-10T10:00:59.528Z,9.00
2023-04-10T10:01:59.498Z,9.50
2023-04-10T10:02:59.462Z,9.60
2023-04-10T10:03:59.323Z,9.40
2023-04-10T10:04:59.400Z,8.20
2023-04-10T10:05:59.360Z,8.60
2023-04-10T10:06:59.348Z,7.80
2023-04-10T10:07:59.482Z,8.20
2023-04-10T10:08:59.328Z,8.20
2023-04-10T10:09:59.296Z,8.20
2023-04-10T10:10:59.284Z,8.50
2023-04-10T10:11:59.322Z,8.60
2023-04-10T10:12:59.360Z,9.70
2023-04-10T10:13:59.334Z,9.00
2023-04-10T10:14:59.315Z,8.50
2023-04-10T10:15:59.385Z,9.30
2023-04-10T10:16:59.298Z,8.30
2023-04-10T10:17:59.593Z,7.50
2023-04-10T10:18:59.248Z,7.90
2023-04-10T10:19:59.299Z,7.60
2023-04-10T10:20:59.243Z,7.90
2023-04-10T10:21:59.241Z,7.40
2023-04-10T10:22:59.254Z,7.90
2023-04-10T10:23:59.289Z,7.40
2023-04-10T10:24:59.264Z,7.90
2023-04-10T10:25:59.892Z,8.40
2023-04-10T10:26:59.252Z,8.30
2023-04-10T10:27:59.225Z,8.30
2023-04-10T10:28:59.228Z,7.80
2023-04-10T10:30:00.927Z,8.80
2023-04-10T10:30:59.200Z,8.40
2023-04-10T10:31:59.285Z,8.30
2023-04-10T10:32:59.297Z,8.50
2023-04-10T10:33:59.198Z,8.60
2023-04-10T10:34:59.213Z,9.20
2023-04-10T10:35:59.240Z,8.60
2023-04-10T10:36:59.288Z,8.50
2023-04-10T10:37:59.172Z,8.00
2023-04-10T10:38:59.159Z,7.60
2023-04-10T10:39:59.173Z,8.20
2023-04-10T10:40:59.185Z,9.50
2023-04-10T10:41:59.182Z,8.70
2023-04-10T10:42:59.130Z,9.00
2023-04-10T10:43:59.148Z,8.90
2023-04-10T10:44:59.586Z,7.90
2023-04-10T10:45:59.311Z,7.40
2023-04-10T10:46:59.131Z,7.60
2023-04-10T10:47:59.250Z,6.90
2023-04-10T10:48:59.137Z,6.60
2023-04-10T10:49:59.150Z,7.50
2023-04-10T10:50:59.229Z,7.20
2023-04-10T10:51:59.163Z,7.30
2023-04-10T10:52:59.200Z,6.80
2023-04-10T10:53:59.114Z,7.00
2023-04-10T10:54:59.699Z,7.30
2023-04-10T10:56:00.104Z,7.50
2023-04-10T10:56:59.184Z,7.60
2023-04-10T10:57:59.058Z,6.70
2023-04-10T10:58:59.043Z,7.60
2023-04-10T10:59:59.048Z,6.70
2023-04-10T11:00:59.114Z,6.60
2023-04-10T11:01:59.162Z,6.70
2023-04-10T11:02:59.205Z,6.40
2023-04-10T11:03:59.270Z,6.60
2023-04-10T11:04:59.001Z,7.70
2023-04-10T11:05:59.040Z,6.80
2023-04-10T11:06:58.994Z,6.00
2023-04-10T11:07:59.204Z,6.80
2023-04-10T11:08:58.990Z,6.00
2023-04-10T11:09:58.969Z,6.40
2023-04-10T11:10:59.064Z,6.30
2023-04-10T11:11:59.036Z,5.50
2023-04-10T11:12:59.007Z,6.30
2023-04-10T11:13:58.966Z,5.90
2023-04-10T11:14:58.980Z,6.30
2023-04-10T11:15:59.027Z,6.20
2023-04-10T11:16:59.097Z,6.60
2023-04-10T11:17:59.012Z,6.60
2023-04-10T11:19:10.555Z,7.00
2023-04-10T11:20:01.012Z,6.40
2023-04-10T11:20:58.927Z,5.90
2023-04-10T11:21:58.935Z,6.00
2023-04-10T11:22:58.940Z,5.90
2023-04-10T11:23:58.913Z,5.60
2023-04-10T11:24:58.950Z,6.10
2023-04-10T11:25:58.867Z,6.50
2023-04-10T11:26:58.905Z,6.40
2023-04-10T11:27:58.865Z,6.30
2023-04-10T11:28:58.856Z,5.70
2023-04-10T11:29:58.867Z,8.40
2023-04-10T11:30:58.850Z,6.00
2023-04-10T11:31:59.021Z,6.70
2023-04-10T11:32:58.972Z,6.20
2023-04-10T11:33:58.813Z,6.30
2023-04-10T11:34:59.172Z,6.40
2023-04-10T11:35:58.875Z,8.10
2023-04-10T11:36:58.792Z,6.20
2023-04-10T11:37:58.804Z,7.50
2023-04-10T11:38:58.861Z,6.80
2023-04-10T11:40:00.171Z,6.20
2023-04-10T11:40:58.813Z,7.50
2023-04-10T11:41:58.778Z,5.90
2023-04-10T11:42:58.788Z,6.40
2023-04-10T11:43:58.748Z,5.90
2023-04-10T11:44:59.166Z,5.10
2023-04-10T11:45:58.906Z,6.60
2023-04-10T11:46:58.800Z,5.50
2023-04-10T11:47:58.826Z,5.60
2023-04-10T11:48:58.732Z,5.80
2023-04-10T11:49:58.837Z,6.00
2023-04-10T11:50:58.718Z,6.50
2023-04-10T11:51:58.806Z,5.90
2023-04-10T11:52:59.775Z,5.60
2023-04-10T11:53:58.711Z,5.60
2023-04-10T11:54:58.736Z,5.50
2023-04-10T11:55:58.716Z,4.90
2023-04-10T11:56:58.712Z,5.40
2023-04-10T11:57:58.713Z,5.40
2023-04-10T11:58:58.681Z,4.80
2023-04-10T11:59:58.690Z,4.80
2023-04-10T12:00:58.668Z,4.50
2023-04-10T12:01:58.741Z,4.90
2023-04-10T12:02:58.863Z,4.50
2023-04-10T12:03:58.853Z,4.90
2023-04-10T12:04:58.851Z,4.80
2023-04-10T12:05:58.672Z,4.30
2023-04-10T12:06:58.723Z,4.40
2023-04-10T12:07:58.669Z,4.00
2023-04-10T12:08:58.745Z,4.50
2023-04-10T12:09:58.690Z,4.60
2023-04-10T12:10:58.709Z,4.20
2023-04-10T12:11:58.636Z,4.40
2023-04-10T12:12:58.623Z,4.30
2023-04-10T12:13:58.666Z,3.90
2023-04-10T12:14:58.742Z,3.80
2023-04-10T12:15:58.728Z,4.10
2023-04-10T12:16:58.942Z,4.00
2023-04-10T12:17:58.626Z,3.90
2023-04-10T12:18:59.626Z,3.80
2023-04-10T12:19:58.709Z,3.60
2023-04-10T12:20:58.603Z,3.90
2023-04-10T12:21:59.641Z,4.00
2023-04-10T12:22:58.559Z,3.50
2023-04-10T12:23:58.607Z,3.80
2023-04-10T12:24:58.598Z,6.60
2023-04-10T12:25:58.609Z,3.70
2023-04-10T12:27:13.165Z,4.40
2023-04-10T12:27:58.602Z,3.60
2023-04-10T12:28:58.719Z,3.90
2023-04-10T12:29:58.589Z,3.80
2023-04-10T12:30:58.666Z,3.40
2023-04-10T12:31:58.560Z,3.40
2023-04-10T12:32:58.584Z,3.20
2023-04-10T12:33:58.563Z,3.60
2023-04-10T12:34:58.891Z,3.60
2023-04-10T12:35:58.575Z,3.70
2023-04-10T12:36:58.541Z,3.40
2023-04-10T12:37:58.528Z,3.30
2023-04-10T12:38:58.553Z,3.20
2023-04-10T12:39:58.473Z,3.30
2023-04-10T12:40:58.477Z,3.60
2023-04-10T12:41:58.501Z,3.30
2023-04-10T12:42:58.499Z,3.30
2023-04-10T12:43:58.458Z,3.20
2023-04-10T12:44:59.446Z,3.00
2023-04-10T12:45:58.524Z,2.90
2023-04-10T12:46:58.538Z,3.60
2023-04-10T12:47:58.430Z,3.20
2023-04-10T12:48:58.448Z,3.10
2023-04-10T12:49:58.441Z,3.20
2023-04-10T12:50:58.419Z,3.20
2023-04-10T12:51:58.429Z,3.60
2023-04-10T12:52:58.397Z,2.90
2023-04-10T12:53:58.435Z,3.20
2023-04-10T12:54:59.232Z,2.90
2023-04-10T12:55:58.498Z,3.40
2023-04-10T12:56:58.404Z,3.00
2023-04-10T12:57:58.390Z,3.30
2023-04-10T12:58:58.385Z,3.70
2023-04-10T12:59:58.382Z,3.40
2023-04-10T13:00:58.373Z,3.10
2023-04-10T13:01:58.465Z,3.20